Hovedside
METAR-TAF:

METAR-TAF

Lufthavner :

Odense, Danmark

Hans Christian Andersen Airport

breddegrad: 55-29N, lengdegrad: 010-20E, høyde over havet: 17 m

Gjeldene værobservasjon

Denne rapporten ble laget for 24 minutter siden, klokken 14:10 UTC
Vind 15 kt fra Sør-sørvest, skiftende mellom Sør og Vest-sørvest
Temperatur 10°C
Luftfuktighet 93%
Trykk 999 hPa
Sikt: 5000 m
Spredte skyer i en høyde av 500 ft
Brutte skyer i en høyde av 800 ft
lett duskregn, regn

METAR: EKOD 221410Z 21015KT 180V240 5000 -DZRA SCT005 BKN008 10/09 Q0999

Tid: 15:34 (14:34 UTC)

Varsel

Denne rapporten ble laget for 2 timer og 42 minutter siden, klokken 11:52 UTC
Varsel gyldig fra 22. klokken 12 UTC til 22. klokken 17 UTC
Vind 15 kt fra Sørvest
Sikt: 8000 m
Brutte skyer i en høyde av 1000 ft
Midlertidig
fra 22. klokken 12 UTC til 22. klokken 17 UTC
Sikt: 2500 m
Brutte skyer i en høyde av 500 ft
regn, duskregn

TAF: EKOD 221152Z 2212/2217 23015KT 8000 BKN010 TEMPO 2212/2217 2500 RADZ BKN005

Værobservasjoner og værvarsel for over 4000 flyplasser (METAR- og TAF-rapporter).

Tilgjengelige stasjoner er representert av de røde og gule prikkene på kartet.

Hold musepekeren over prikken for å se navnet på stasjonen.

Klikk så for å se værobservasjoner og -varsler.

For å forandre kartet kan du klikke på den grønne knappen med svart kryss for å zoome inn, på den grønne knappen med strek for å zoome ut, eller på de grønne pilene for å se tilstøtende kart.


METAR-TAF: